createdAt,value
2017-01-17T00:00:03.853Z,0
2017-01-17T00:01:03.070Z,0
2017-01-17T00:02:03.487Z,0
2017-01-17T00:03:03.883Z,0
2017-01-17T00:04:04.344Z,0
2017-01-17T00:05:03.110Z,0
2017-01-17T00:06:03.918Z,0
2017-01-17T00:07:03.532Z,0
2017-01-17T00:08:03.535Z,0
2017-01-17T00:09:03.146Z,0
2017-01-17T00:10:03.568Z,0
2017-01-17T00:11:03.169Z,0
2017-01-17T00:12:03.181Z,0
2017-01-17T00:13:03.987Z,0
2017-01-17T00:14:03.994Z,0
2017-01-17T00:15:03.216Z,0
2017-01-17T00:16:03.620Z,0
2017-01-17T00:17:04.423Z,0
2017-01-17T00:18:04.440Z,0
2017-01-17T00:19:03.732Z,0
2017-01-17T00:20:03.663Z,0
2017-01-17T00:21:03.271Z,0
2017-01-17T00:22:02.881Z,0
2017-01-17T00:23:02.899Z,0
2017-01-17T00:24:03.750Z,0
2017-01-17T00:25:03.721Z,0
2017-01-17T00:26:03.721Z,0
2017-01-17T00:27:02.957Z,0
2017-01-17T00:28:04.139Z,0
2017-01-17T00:29:04.256Z,0
2017-01-17T00:30:03.765Z,0
2017-01-17T00:31:03.373Z,0
2017-01-17T00:32:03.783Z,0
2017-01-17T00:33:04.192Z,0
2017-01-17T00:34:03.819Z,0
2017-01-17T00:35:03.811Z,0
2017-01-17T00:36:04.251Z,0
2017-01-17T00:37:03.828Z,0
2017-01-17T00:38:03.456Z,0
2017-01-17T00:39:03.467Z,0
2017-01-17T00:40:03.472Z,0
2017-01-17T00:41:03.874Z,0
2017-01-17T00:42:03.099Z,0
2017-01-17T00:43:04.298Z,0
2017-01-17T00:44:03.902Z,0
2017-01-17T00:45:04.034Z,0
2017-01-17T00:46:03.131Z,0
2017-01-17T00:47:03.539Z,0
2017-01-17T00:48:03.950Z,0
2017-01-17T00:49:03.225Z,0
2017-01-17T00:50:03.170Z,0
2017-01-17T00:51:04.370Z,0
2017-01-17T00:52:04.389Z,0
2017-01-17T00:53:04.396Z,0
2017-01-17T00:54:04.406Z,0
2017-01-17T00:55:04.019Z,0
2017-01-17T00:56:03.627Z,0
2017-01-17T00:57:03.638Z,0
2017-01-17T00:58:03.650Z,0
2017-01-17T00:59:03.658Z,0
2017-01-17T01:00:04.468Z,0
2017-01-17T01:01:04.475Z,0
2017-01-17T01:02:03.690Z,0
2017-01-17T01:03:04.122Z,0
2017-01-17T01:04:04.512Z,0
2017-01-17T01:05:04.521Z,0
2017-01-17T01:06:04.527Z,0
2017-01-17T01:07:03.766Z,0
2017-01-17T01:08:04.157Z,0
2017-01-17T01:09:03.762Z,0
2017-01-17T01:10:05.046Z,0
2017-01-17T01:11:04.189Z,0
2017-01-17T01:12:04.190Z,0
2017-01-17T01:13:04.631Z,0
2017-01-17T01:14:04.207Z,0
2017-01-17T01:15:03.869Z,0
2017-01-17T01:16:04.632Z,0
2017-01-17T01:17:04.642Z,0
2017-01-17T01:18:03.855Z,0
2017-01-17T01:19:04.659Z,0
2017-01-17T01:20:04.926Z,0
2017-01-17T01:21:04.677Z,0
2017-01-17T01:22:04.329Z,0
2017-01-17T01:23:04.700Z,0
2017-01-17T01:24:03.515Z,0
2017-01-17T01:25:04.319Z,0
2017-01-17T01:26:03.930Z,0
2017-01-17T01:27:04.737Z,0
2017-01-17T01:28:04.352Z,0
2017-01-17T01:29:04.758Z,0
2017-01-17T01:30:05.200Z,0
2017-01-17T01:31:04.383Z,0
2017-01-17T01:32:04.398Z,0
2017-01-17T01:33:04.404Z,0
2017-01-17T01:34:04.409Z,0
2017-01-17T01:35:04.841Z,0
2017-01-17T01:36:04.436Z,0
2017-01-17T01:37:04.870Z,0
2017-01-17T01:38:05.245Z,0
2017-01-17T01:39:04.467Z,0
2017-01-17T01:40:04.877Z,0
2017-01-17T01:41:04.084Z,0
2017-01-17T01:42:04.489Z,0
2017-01-17T01:43:04.105Z,0
2017-01-17T01:44:04.111Z,0
2017-01-17T01:45:04.523Z,0
2017-01-17T01:46:04.185Z,0
2017-01-17T01:47:04.142Z,0
2017-01-17T01:48:04.954Z,0
2017-01-17T01:49:04.973Z,0
2017-01-17T01:50:04.173Z,0
2017-01-17T01:51:04.205Z,0
2017-01-17T01:52:04.197Z,0
2017-01-17T01:53:04.604Z,0
2017-01-17T01:54:04.609Z,0
2017-01-17T01:55:04.227Z,0
2017-01-17T01:56:05.035Z,0
2017-01-17T01:57:05.045Z,0
2017-01-17T01:58:04.278Z,0
2017-01-17T01:59:04.265Z,0
2017-01-17T02:00:04.306Z,0
2017-01-17T02:01:04.682Z,0
2017-01-17T02:02:04.296Z,0
2017-01-17T02:03:04.714Z,0
2017-01-17T02:04:04.722Z,0
2017-01-17T02:05:05.176Z,0
2017-01-17T02:06:04.736Z,0
2017-01-17T02:07:04.345Z,0
2017-01-17T02:08:04.381Z,0
2017-01-17T02:09:04.764Z,0
2017-01-17T02:10:04.084Z,0
2017-01-17T02:11:03.984Z,0
2017-01-17T02:12:05.204Z,0
2017-01-17T02:13:04.844Z,0
2017-01-17T02:14:05.616Z,0
2017-01-17T02:15:04.878Z,0
2017-01-17T02:16:04.837Z,0
2017-01-17T02:17:05.247Z,0
2017-01-17T02:18:05.255Z,0
2017-01-17T02:19:04.874Z,0
2017-01-17T02:20:04.483Z,0
2017-01-17T02:21:04.099Z,0
2017-01-17T02:22:05.291Z,0
2017-01-17T02:23:04.514Z,0
2017-01-17T02:24:04.921Z,0
2017-01-17T02:25:05.325Z,0
2017-01-17T02:26:04.546Z,0
2017-01-17T02:27:04.949Z,0
2017-01-17T02:28:04.165Z,0
2017-01-17T02:29:05.374Z,0
2017-01-17T02:30:04.583Z,0
2017-01-17T02:31:05.393Z,0
2017-01-17T02:32:04.598Z,0
2017-01-17T02:33:05.008Z,0
2017-01-17T02:34:05.818Z,0
2017-01-17T02:35:05.027Z,0
2017-01-17T02:36:05.447Z,0
2017-01-17T02:37:05.445Z,0
2017-01-17T02:38:05.455Z,0
2017-01-17T02:39:05.864Z,0
2017-01-17T02:40:04.732Z,0
2017-01-17T02:41:04.789Z,0
2017-01-17T02:42:05.099Z,0
2017-01-17T02:43:05.313Z,0
2017-01-17T02:44:05.113Z,0
2017-01-17T02:45:05.124Z,0
2017-01-17T02:46:05.535Z,0
2017-01-17T02:47:04.747Z,0
2017-01-17T02:48:04.356Z,0
2017-01-17T02:49:05.170Z,0
2017-01-17T02:50:05.636Z,0
2017-01-17T02:51:05.200Z,0
2017-01-17T02:52:04.793Z,0
2017-01-17T02:53:06.043Z,0
2017-01-17T02:54:06.054Z,0
2017-01-17T02:55:05.242Z,0
2017-01-17T02:56:04.936Z,0
2017-01-17T02:57:05.245Z,0
2017-01-17T02:58:04.483Z,0
2017-01-17T02:59:04.468Z,0
2017-01-17T03:00:05.269Z,0
2017-01-17T03:01:05.293Z,0
2017-01-17T03:02:05.697Z,0
2017-01-17T03:03:05.313Z,0
2017-01-17T03:04:05.313Z,0
2017-01-17T03:05:04.574Z,0
2017-01-17T03:06:04.935Z,0
2017-01-17T03:07:05.343Z,0
2017-01-17T03:08:04.556Z,0
2017-01-17T03:09:05.360Z,0
2017-01-17T03:10:05.420Z,0
2017-01-17T03:11:05.380Z,0
2017-01-17T03:12:05.809Z,0
2017-01-17T03:13:05.807Z,0
2017-01-17T03:14:05.410Z,0
2017-01-17T03:15:05.999Z,0
2017-01-17T03:16:05.435Z,0
2017-01-17T03:17:05.444Z,0
2017-01-17T03:18:05.444Z,0
2017-01-17T03:19:05.456Z,0
2017-01-17T03:20:05.909Z,0
2017-01-17T03:21:05.099Z,0
2017-01-17T03:22:05.887Z,0
2017-01-17T03:23:05.095Z,0
2017-01-17T03:24:05.109Z,0
2017-01-17T03:25:05.117Z,0
2017-01-17T03:26:05.930Z,0
2017-01-17T03:27:05.945Z,0
2017-01-17T03:28:05.547Z,0
2017-01-17T03:29:05.153Z,0
2017-01-17T03:30:04.763Z,0
2017-01-17T03:31:04.781Z,0
2017-01-17T03:32:05.186Z,0
2017-01-17T03:33:05.593Z,0
2017-01-17T03:34:05.604Z,0
2017-01-17T03:35:06.410Z,0
2017-01-17T03:36:05.623Z,0
2017-01-17T03:37:06.047Z,0
2017-01-17T03:38:05.647Z,0
2017-01-17T03:39:06.454Z,0
2017-01-17T03:40:05.659Z,0
2017-01-17T03:41:06.067Z,0
2017-01-17T03:42:05.712Z,0
2017-01-17T03:43:05.690Z,0
2017-01-17T03:44:06.499Z,0
2017-01-17T03:45:05.709Z,0
2017-01-17T03:46:05.721Z,0
2017-01-17T03:47:05.729Z,0
2017-01-17T03:48:06.136Z,0
2017-01-17T03:49:05.757Z,0
2017-01-17T03:50:05.383Z,0
2017-01-17T03:51:05.763Z,0
2017-01-17T03:52:04.982Z,0
2017-01-17T03:53:05.785Z,0
2017-01-17T03:54:05.399Z,0
2017-01-17T03:55:06.202Z,0
2017-01-17T03:56:05.469Z,0
2017-01-17T03:57:05.030Z,0
2017-01-17T03:58:05.832Z,0
2017-01-17T03:59:06.638Z,0
2017-01-17T04:00:05.850Z,0
2017-01-17T04:01:06.309Z,0
2017-01-17T04:02:06.278Z,0
2017-01-17T04:03:05.891Z,0
2017-01-17T04:04:05.514Z,0
2017-01-17T04:05:06.303Z,0
2017-01-17T04:06:06.308Z,0
2017-01-17T04:07:05.921Z,0
2017-01-17T04:08:06.339Z,0
2017-01-17T04:09:05.940Z,0
2017-01-17T04:10:06.752Z,0
2017-01-17T04:11:06.763Z,0
2017-01-17T04:12:05.568Z,0
2017-01-17T04:13:05.575Z,0
2017-01-17T04:14:06.390Z,0
2017-01-17T04:15:05.646Z,0
2017-01-17T04:16:05.205Z,0
2017-01-17T04:17:06.023Z,0
2017-01-17T04:18:05.645Z,0
2017-01-17T04:19:06.034Z,0
2017-01-17T04:20:05.990Z,0
2017-01-17T04:21:06.051Z,0
2017-01-17T04:22:06.063Z,0
2017-01-17T04:23:05.676Z,0
2017-01-17T04:24:05.679Z,0
2017-01-17T04:25:05.287Z,0
2017-01-17T04:26:05.697Z,0
2017-01-17T04:27:06.509Z,0
2017-01-17T04:28:06.508Z,0
2017-01-17T04:29:06.129Z,0
2017-01-17T04:30:06.534Z,0
2017-01-17T04:31:06.956Z,0
2017-01-17T04:32:06.548Z,0
2017-01-17T04:33:06.168Z,0
2017-01-17T04:34:06.568Z,0
2017-01-17T04:35:06.186Z,0
2017-01-17T04:36:05.800Z,0
2017-01-17T04:37:06.205Z,0
2017-01-17T04:38:05.811Z,0
2017-01-17T04:39:06.621Z,0
2017-01-17T04:40:05.833Z,0
2017-01-17T04:41:06.632Z,0
2017-01-17T04:42:06.245Z,0
2017-01-17T04:43:06.251Z,0
2017-01-17T04:44:05.867Z,0
2017-01-17T04:45:05.477Z,0
2017-01-17T04:46:06.687Z,0
2017-01-17T04:47:06.288Z,0
2017-01-17T04:48:05.503Z,0
2017-01-17T04:49:07.108Z,0
2017-01-17T04:50:05.927Z,0
2017-01-17T04:51:05.531Z,0
2017-01-17T04:52:06.340Z,0
2017-01-17T04:53:06.747Z,0
2017-01-17T04:54:06.360Z,0
2017-01-17T04:55:05.575Z,0
2017-01-17T04:56:06.451Z,0
2017-01-17T04:57:06.383Z,0
2017-01-17T04:58:05.993Z,0
2017-01-17T04:59:07.203Z,0
2017-01-17T05:00:06.010Z,0
2017-01-17T05:01:06.419Z,0
2017-01-17T05:02:06.830Z,0
2017-01-17T05:03:06.437Z,0
2017-01-17T05:04:06.848Z,0
2017-01-17T05:05:06.854Z,0
2017-01-17T05:06:06.468Z,0
2017-01-17T05:07:06.875Z,0
2017-01-17T05:08:06.885Z,0
2017-01-17T05:09:06.104Z,0
2017-01-17T05:10:06.508Z,0
2017-01-17T05:11:06.116Z,0
2017-01-17T05:12:06.519Z,0
2017-01-17T05:13:06.928Z,0
2017-01-17T05:14:06.940Z,0
2017-01-17T05:15:06.945Z,0
2017-01-17T05:16:05.758Z,0
2017-01-17T05:17:06.575Z,0
2017-01-17T05:18:06.177Z,0
2017-01-17T05:19:06.184Z,0
2017-01-17T05:20:06.610Z,0
2017-01-17T05:21:07.429Z,0
2017-01-17T05:22:06.606Z,0
2017-01-17T05:23:06.621Z,0
2017-01-17T05:24:06.631Z,0
2017-01-17T05:25:07.042Z,0
2017-01-17T05:26:06.652Z,0
2017-01-17T05:27:07.501Z,0
2017-01-17T05:28:05.866Z,0
2017-01-17T05:29:06.678Z,0
2017-01-17T05:30:06.295Z,0
2017-01-17T05:31:06.689Z,0
2017-01-17T05:32:06.699Z,0
2017-01-17T05:33:06.707Z,0
2017-01-17T05:34:07.119Z,0
2017-01-17T05:35:06.333Z,0
2017-01-17T05:36:06.337Z,0
2017-01-17T05:37:06.748Z,0
2017-01-17T05:38:06.357Z,0
2017-01-17T05:39:06.772Z,0
2017-01-17T05:40:06.793Z,0
2017-01-17T05:41:07.576Z,0
2017-01-17T05:42:07.588Z,0
2017-01-17T05:43:06.800Z,0
2017-01-17T05:44:07.207Z,0
2017-01-17T05:45:07.524Z,0
2017-01-17T05:46:06.436Z,0
2017-01-17T05:47:07.245Z,0
2017-01-17T05:48:07.240Z,0
2017-01-17T05:49:06.449Z,0
2017-01-17T05:50:06.459Z,0
2017-01-17T05:51:07.275Z,0
2017-01-17T05:52:06.477Z,0
2017-01-17T05:53:07.285Z,0
2017-01-17T05:54:06.913Z,0
2017-01-17T05:55:07.704Z,0
2017-01-17T05:56:07.315Z,0
2017-01-17T05:57:06.522Z,0
2017-01-17T05:58:07.336Z,0
2017-01-17T05:59:06.544Z,0
2017-01-17T06:00:06.167Z,0
2017-01-17T06:01:06.978Z,0
2017-01-17T06:02:07.364Z,0
2017-01-17T06:03:06.978Z,0
2017-01-17T06:04:07.389Z,0
2017-01-17T06:05:06.629Z,0
2017-01-17T06:06:07.029Z,0
2017-01-17T06:07:07.026Z,0
2017-01-17T06:08:07.043Z,0
2017-01-17T06:09:06.640Z,0
2017-01-17T06:10:06.643Z,0
2017-01-17T06:11:07.050Z,0
2017-01-17T06:12:06.671Z,0
2017-01-17T06:13:06.677Z,0
2017-01-17T06:14:07.873Z,0
2017-01-17T06:15:06.685Z,0
2017-01-17T06:16:07.091Z,0
2017-01-17T06:17:06.702Z,0
2017-01-17T06:18:06.315Z,0
2017-01-17T06:19:07.127Z,0
2017-01-17T06:20:07.139Z,0
2017-01-17T06:21:07.137Z,0
2017-01-17T06:22:07.147Z,0
2017-01-17T06:23:07.555Z,0
2017-01-17T06:24:07.571Z,0
2017-01-17T06:25:07.179Z,0
2017-01-17T06:26:07.983Z,0
2017-01-17T06:27:06.407Z,0
2017-01-17T06:28:07.213Z,0
2017-01-17T06:29:07.609Z,0
2017-01-17T06:30:07.225Z,0
2017-01-17T06:31:07.230Z,0
2017-01-17T06:32:07.633Z,0
2017-01-17T06:33:06.849Z,0
2017-01-17T06:34:08.067Z,0
2017-01-17T06:35:07.673Z,0
2017-01-17T06:36:06.477Z,0
2017-01-17T06:37:07.283Z,0
2017-01-17T06:38:07.295Z,0
2017-01-17T06:39:07.306Z,0
2017-01-17T06:40:07.332Z,0
2017-01-17T06:41:08.116Z,0
2017-01-17T06:42:06.530Z,0
2017-01-17T06:43:07.733Z,0
2017-01-17T06:44:06.941Z,0
2017-01-17T06:45:06.960Z,0
2017-01-17T06:46:07.364Z,0
2017-01-17T06:47:07.772Z,0
2017-01-17T06:48:08.179Z,0
2017-01-17T06:49:07.391Z,0
2017-01-17T06:50:06.999Z,0
2017-01-17T06:51:07.460Z,0
2017-01-17T06:52:07.021Z,0
2017-01-17T06:53:07.830Z,0
2017-01-17T06:54:07.445Z,0
2017-01-17T06:55:07.841Z,0
2017-01-17T06:56:07.454Z,0
2017-01-17T06:57:07.883Z,0
2017-01-17T06:58:07.066Z,0
2017-01-17T06:59:07.093Z,0
2017-01-17T07:00:08.301Z,0
2017-01-17T07:01:07.497Z,0
2017-01-17T07:02:07.517Z,0
2017-01-17T07:03:07.913Z,0
2017-01-17T07:04:08.327Z,0
2017-01-17T07:05:07.885Z,0
2017-01-17T07:06:07.954Z,0
2017-01-17T07:07:07.150Z,0
2017-01-17T07:08:07.960Z,0
2017-01-17T07:09:07.216Z,0
2017-01-17T07:10:07.577Z,0
2017-01-17T07:11:07.587Z,0
2017-01-17T07:12:06.801Z,0
2017-01-17T07:13:08.011Z,0
2017-01-17T07:14:07.235Z,0
2017-01-17T07:15:08.021Z,0
2017-01-17T07:16:07.227Z,0
2017-01-17T07:17:07.247Z,0
2017-01-17T07:18:07.648Z,0
2017-01-17T07:19:08.058Z,0
2017-01-17T07:20:07.680Z,0
2017-01-17T07:21:07.300Z,0
2017-01-17T07:22:07.684Z,0
2017-01-17T07:23:07.733Z,0
2017-01-17T07:24:07.707Z,0
2017-01-17T07:25:08.108Z,0
2017-01-17T07:26:07.715Z,0
2017-01-17T07:27:08.144Z,0
2017-01-17T07:28:07.331Z,0
2017-01-17T07:29:06.949Z,0
2017-01-17T07:30:08.158Z,0
2017-01-17T07:31:08.567Z,0
2017-01-17T07:32:08.600Z,5
2017-01-17T07:33:08.184Z,5
2017-01-17T07:34:07.389Z,5
2017-01-17T07:35:07.451Z,5
2017-01-17T07:36:07.406Z,5
2017-01-17T07:37:07.817Z,5
2017-01-17T07:38:07.023Z,5
2017-01-17T07:39:07.832Z,5
2017-01-17T07:40:07.489Z,5
2017-01-17T07:41:07.467Z,5
2017-01-17T07:42:08.663Z,5
2017-01-17T07:43:07.867Z,5
2017-01-17T07:44:07.497Z,5
2017-01-17T07:45:07.159Z,5
2017-01-17T07:46:07.490Z,5
2017-01-17T07:47:08.308Z,10
2017-01-17T07:48:07.111Z,10
2017-01-17T07:49:08.324Z,10
2017-01-17T07:50:07.530Z,10
2017-01-17T07:51:07.536Z,10
2017-01-17T07:52:08.343Z,10
2017-01-17T07:53:07.954Z,15
2017-01-17T07:54:07.964Z,15
2017-01-17T07:55:08.773Z,15
2017-01-17T07:56:07.580Z,15
2017-01-17T07:57:08.391Z,15
2017-01-17T07:58:08.000Z,20
2017-01-17T07:59:08.404Z,20
2017-01-17T08:00:08.016Z,20
2017-01-17T08:01:08.470Z,20
2017-01-17T08:02:07.632Z,25
2017-01-17T08:03:08.479Z,25
2017-01-17T08:04:08.450Z,25
2017-01-17T08:05:07.334Z,25
2017-01-17T08:06:08.112Z,25
2017-01-17T08:07:08.497Z,25
2017-01-17T08:08:08.490Z,25
2017-01-17T08:09:08.095Z,30
2017-01-17T08:10:08.502Z,30
2017-01-17T08:11:07.717Z,30
2017-01-17T08:12:09.299Z,30
2017-01-17T08:13:07.736Z,30
2017-01-17T08:14:08.213Z,30
2017-01-17T08:15:09.361Z,30
2017-01-17T08:16:08.530Z,30
2017-01-17T08:17:08.860Z,30
2017-01-17T08:18:09.211Z,25
2017-01-17T08:19:08.652Z,30
2017-01-17T08:20:07.949Z,30
2017-01-17T08:21:08.240Z,30
2017-01-17T08:22:07.814Z,30
2017-01-17T08:23:08.643Z,30
2017-01-17T08:24:08.232Z,30
2017-01-17T08:25:07.838Z,30
2017-01-17T08:26:08.245Z,30
2017-01-17T08:27:08.692Z,30
2017-01-17T08:28:07.862Z,30
2017-01-17T08:29:07.869Z,30
2017-01-17T08:30:08.291Z,30
2017-01-17T08:31:07.898Z,30
2017-01-17T08:32:08.700Z,30
2017-01-17T08:33:08.310Z,35
2017-01-17T08:34:08.721Z,35
2017-01-17T08:35:07.927Z,40
2017-01-17T08:36:07.539Z,35
2017-01-17T08:37:08.353Z,45
2017-01-17T08:38:08.363Z,35
2017-01-17T08:39:09.165Z,35
2017-01-17T08:40:08.377Z,35
2017-01-17T08:41:08.783Z,35
2017-01-17T08:42:08.000Z,30
2017-01-17T08:43:08.022Z,30
2017-01-17T08:44:08.418Z,30
2017-01-17T08:45:08.238Z,30
2017-01-17T08:46:08.829Z,30
2017-01-17T08:47:08.434Z,25
2017-01-17T08:48:08.450Z,25
2017-01-17T08:49:08.892Z,25
2017-01-17T08:50:08.466Z,20
2017-01-17T08:51:08.075Z,15
2017-01-17T08:52:08.491Z,15
2017-01-17T08:53:08.899Z,15
2017-01-17T08:54:08.501Z,15
2017-01-17T08:55:08.514Z,15
2017-01-17T08:56:08.926Z,10
2017-01-17T08:57:07.734Z,10
2017-01-17T08:58:08.139Z,15
2017-01-17T08:59:09.355Z,15
2017-01-17T09:00:08.564Z,20
2017-01-17T09:01:08.171Z,20
2017-01-17T09:02:08.578Z,20
2017-01-17T09:03:08.587Z,20
2017-01-17T09:04:08.596Z,20
2017-01-17T09:05:08.211Z,25
2017-01-17T09:06:09.035Z,25
2017-01-17T09:07:07.833Z,25
2017-01-17T09:08:09.036Z,25
2017-01-17T09:09:08.642Z,25
2017-01-17T09:10:07.861Z,25
2017-01-17T09:11:08.268Z,25
2017-01-17T09:12:08.673Z,25
2017-01-17T09:13:08.701Z,25
2017-01-17T09:14:09.094Z,25
2017-01-17T09:15:07.929Z,20
2017-01-17T09:16:08.709Z,20
2017-01-17T09:17:08.319Z,20
2017-01-17T09:18:08.731Z,20
2017-01-17T09:19:08.800Z,25
2017-01-17T09:20:08.747Z,25
2017-01-17T09:21:09.156Z,20
2017-01-17T09:22:09.196Z,20
2017-01-17T09:23:08.377Z,15
2017-01-17T09:24:09.231Z,15
2017-01-17T09:25:09.199Z,15
2017-01-17T09:26:08.407Z,15
2017-01-17T09:27:08.813Z,15
2017-01-17T09:28:09.641Z,15
2017-01-17T09:29:08.484Z,15
2017-01-17T09:30:08.442Z,15
2017-01-17T09:31:08.466Z,15
2017-01-17T09:32:09.260Z,15
2017-01-17T09:33:09.163Z,15
2017-01-17T09:34:08.884Z,15
2017-01-17T09:35:08.490Z,15
2017-01-17T09:36:08.497Z,15
2017-01-17T09:37:08.511Z,15
2017-01-17T09:38:09.314Z,15
2017-01-17T09:39:09.322Z,15
2017-01-17T09:40:08.539Z,15
2017-01-17T09:41:08.538Z,20
2017-01-17T09:42:09.347Z,20
2017-01-17T09:43:08.164Z,20
2017-01-17T09:44:09.373Z,20
2017-01-17T09:45:09.803Z,20
2017-01-17T09:46:09.383Z,25
2017-01-17T09:47:09.397Z,25
2017-01-17T09:48:09.013Z,25
2017-01-17T09:49:09.464Z,25
2017-01-17T09:50:09.421Z,25
2017-01-17T09:51:09.456Z,25
2017-01-17T09:52:08.650Z,25
2017-01-17T09:53:09.059Z,20
2017-01-17T09:54:09.137Z,20
2017-01-17T09:55:08.673Z,20
2017-01-17T09:56:09.478Z,20
2017-01-17T09:57:08.319Z,20
2017-01-17T09:58:08.697Z,20
2017-01-17T09:59:09.111Z,20
2017-01-17T10:00:09.117Z,20
2017-01-17T10:01:08.730Z,20
2017-01-17T10:02:08.738Z,20
2017-01-17T10:03:09.161Z,20
2017-01-17T10:04:08.762Z,20
2017-01-17T10:05:09.167Z,20
2017-01-17T10:06:09.577Z,20
2017-01-17T10:07:09.184Z,20
2017-01-17T10:08:09.590Z,20
2017-01-17T10:09:09.223Z,20
2017-01-17T10:10:09.610Z,20
2017-01-17T10:11:09.624Z,20
2017-01-17T10:12:09.239Z,20
2017-01-17T10:13:09.640Z,20
2017-01-17T10:14:08.851Z,20
2017-01-17T10:15:09.672Z,20
2017-01-17T10:16:10.075Z,20
2017-01-17T10:17:09.281Z,20
2017-01-17T10:18:09.682Z,15
2017-01-17T10:19:09.692Z,15
2017-01-17T10:20:09.708Z,15
2017-01-17T10:21:08.913Z,15
2017-01-17T10:22:09.340Z,15
2017-01-17T10:23:08.936Z,20
2017-01-17T10:24:09.344Z,20
2017-01-17T10:25:09.749Z,20
2017-01-17T10:26:09.361Z,15
2017-01-17T10:27:09.770Z,15
2017-01-17T10:28:09.781Z,15
2017-01-17T10:29:09.787Z,15
2017-01-17T10:30:09.404Z,15
2017-01-17T10:31:09.410Z,15
2017-01-17T10:32:09.414Z,20
2017-01-17T10:33:09.822Z,20
2017-01-17T10:34:09.429Z,20
2017-01-17T10:35:09.441Z,20
2017-01-17T10:36:10.247Z,20
2017-01-17T10:37:09.466Z,20
2017-01-17T10:38:09.069Z,20
2017-01-17T10:39:09.480Z,20
2017-01-17T10:40:09.538Z,20
2017-01-17T10:41:09.891Z,15
2017-01-17T10:42:09.551Z,15
2017-01-17T10:43:09.517Z,15
2017-01-17T10:44:09.529Z,15
2017-01-17T10:45:09.585Z,20
2017-01-17T10:46:09.539Z,20
2017-01-17T10:47:09.554Z,20
2017-01-17T10:48:09.190Z,20
2017-01-17T10:49:09.571Z,25
2017-01-17T10:50:09.639Z,25
2017-01-17T10:51:09.993Z,25
2017-01-17T10:52:10.399Z,25
2017-01-17T10:53:08.811Z,25
2017-01-17T10:54:08.850Z,20
2017-01-17T10:55:09.288Z,20
2017-01-17T10:56:10.033Z,20
2017-01-17T10:57:09.642Z,20
2017-01-17T10:58:10.062Z,20
2017-01-17T10:59:09.672Z,20
2017-01-17T11:00:09.729Z,20
2017-01-17T11:01:09.678Z,20
2017-01-17T11:02:10.103Z,20
2017-01-17T11:03:10.141Z,20
2017-01-17T11:04:09.315Z,15
2017-01-17T11:05:09.724Z,15
2017-01-17T11:06:09.333Z,15
2017-01-17T11:07:10.149Z,15
2017-01-17T11:08:09.752Z,15
2017-01-17T11:09:09.407Z,15
2017-01-17T11:10:09.766Z,15
2017-01-17T11:11:09.781Z,15
2017-01-17T11:12:09.786Z,15
2017-01-17T11:13:10.587Z,15
2017-01-17T11:14:09.800Z,15
2017-01-17T11:15:10.215Z,15
2017-01-17T11:16:09.875Z,15
2017-01-17T11:17:09.051Z,15
2017-01-17T11:18:09.443Z,15
2017-01-17T11:19:10.248Z,15
2017-01-17T11:20:09.463Z,20
2017-01-17T11:21:10.719Z,20
2017-01-17T11:22:10.274Z,20
2017-01-17T11:23:09.889Z,20
2017-01-17T11:24:09.498Z,20
2017-01-17T11:25:09.507Z,20
2017-01-17T11:26:10.379Z,20
2017-01-17T11:27:09.931Z,20
2017-01-17T11:28:09.934Z,20
2017-01-17T11:29:09.548Z,20
2017-01-17T11:30:10.350Z,25
2017-01-17T11:31:10.363Z,25
2017-01-17T11:32:09.577Z,25
2017-01-17T11:33:09.584Z,25
2017-01-17T11:34:09.997Z,20
2017-01-17T11:35:09.622Z,20
2017-01-17T11:36:09.611Z,15
2017-01-17T11:37:10.024Z,15
2017-01-17T11:38:09.629Z,20
2017-01-17T11:39:09.644Z,20
2017-01-17T11:40:10.069Z,25
2017-01-17T11:41:09.670Z,30
2017-01-17T11:42:09.671Z,30
2017-01-17T11:43:10.085Z,30
2017-01-17T11:44:09.293Z,30
2017-01-17T11:45:10.199Z,35
2017-01-17T11:46:10.116Z,35
2017-01-17T11:47:09.724Z,35
2017-01-17T11:48:10.131Z,35
2017-01-17T11:49:09.743Z,35
2017-01-17T11:50:10.147Z,30
2017-01-17T11:51:10.160Z,35
2017-01-17T11:52:10.569Z,35
2017-01-17T11:53:10.577Z,30
2017-01-17T11:54:09.794Z,30
2017-01-17T11:55:10.207Z,30
2017-01-17T11:56:09.857Z,30
2017-01-17T11:57:10.628Z,35
2017-01-17T11:58:09.826Z,35
2017-01-17T11:59:10.641Z,30
2017-01-17T12:00:11.045Z,30
2017-01-17T12:01:10.275Z,30
2017-01-17T12:02:10.271Z,30
2017-01-17T12:03:10.274Z,30
2017-01-17T12:04:09.895Z,35
2017-01-17T12:05:09.904Z,35
2017-01-17T12:06:10.750Z,40
2017-01-17T12:07:11.112Z,35
2017-01-17T12:08:10.328Z,35
2017-01-17T12:09:10.735Z,30
2017-01-17T12:10:09.582Z,25
2017-01-17T12:11:10.360Z,30
2017-01-17T12:12:09.973Z,35
2017-01-17T12:13:09.986Z,50
2017-01-17T12:14:11.187Z,85
2017-01-17T12:15:10.800Z,75
2017-01-17T12:16:10.013Z,60
2017-01-17T12:17:10.421Z,85
2017-01-17T12:18:10.030Z,80
2017-01-17T12:19:10.437Z,90
2017-01-17T12:20:10.851Z,45
2017-01-17T12:21:10.467Z,75
2017-01-17T12:22:10.865Z,90
2017-01-17T12:23:10.528Z,95
2017-01-17T12:24:10.090Z,95
2017-01-17T12:25:11.308Z,95
2017-01-17T12:26:10.910Z,55
2017-01-17T12:27:10.515Z,75
2017-01-17T12:28:10.546Z,50
2017-01-17T12:29:10.148Z,80
2017-01-17T12:30:10.560Z,80
2017-01-17T12:31:10.565Z,55
2017-01-17T12:32:10.575Z,90
2017-01-17T12:33:10.684Z,90
2017-01-17T12:34:11.000Z,50
2017-01-17T12:35:10.616Z,50
2017-01-17T12:36:11.015Z,85
2017-01-17T12:37:10.635Z,60
2017-01-17T12:38:11.039Z,70
2017-01-17T12:39:10.249Z,50
2017-01-17T12:40:10.662Z,75
2017-01-17T12:41:11.075Z,60
2017-01-17T12:42:11.087Z,75
2017-01-17T12:43:10.695Z,70
2017-01-17T12:44:11.104Z,25
2017-01-17T12:45:10.321Z,30
2017-01-17T12:46:11.154Z,35
2017-01-17T12:47:10.360Z,70
2017-01-17T12:48:10.353Z,75
2017-01-17T12:49:10.480Z,65
2017-01-17T12:50:11.585Z,55
2017-01-17T12:51:11.218Z,60
2017-01-17T12:52:10.796Z,40
2017-01-17T12:53:11.209Z,40
2017-01-17T12:54:10.831Z,35
2017-01-17T12:55:10.834Z,30
2017-01-17T12:56:10.839Z,25
2017-01-17T12:57:11.253Z,25
2017-01-17T12:58:10.870Z,25
2017-01-17T12:59:10.878Z,25
2017-01-17T13:00:10.891Z,30
2017-01-17T13:01:10.965Z,30
2017-01-17T13:02:10.918Z,30
2017-01-17T13:03:10.533Z,30
2017-01-17T13:04:11.441Z,25
2017-01-17T13:05:11.344Z,25
2017-01-17T13:06:11.265Z,25
2017-01-17T13:07:10.578Z,25
2017-01-17T13:08:11.778Z,25
2017-01-17T13:09:10.992Z,25
2017-01-17T13:10:11.808Z,25
2017-01-17T13:11:11.441Z,25
2017-01-17T13:12:11.027Z,25
2017-01-17T13:13:11.055Z,25
2017-01-17T13:14:10.640Z,25
2017-01-17T13:15:10.651Z,25
2017-01-17T13:16:11.096Z,25
2017-01-17T13:17:10.678Z,25
2017-01-17T13:18:11.485Z,30
2017-01-17T13:19:11.596Z,35
2017-01-17T13:20:11.119Z,35
2017-01-17T13:21:10.727Z,35
2017-01-17T13:22:10.734Z,50
2017-01-17T13:23:10.745Z,35
2017-01-17T13:24:11.150Z,35
2017-01-17T13:25:10.766Z,35
2017-01-17T13:26:11.179Z,35
2017-01-17T13:27:11.589Z,35
2017-01-17T13:28:11.193Z,35
2017-01-17T13:29:11.601Z,35
2017-01-17T13:30:11.271Z,35
2017-01-17T13:31:10.829Z,35
2017-01-17T13:32:11.641Z,50
2017-01-17T13:33:10.851Z,35
2017-01-17T13:34:11.744Z,40
2017-01-17T13:35:11.269Z,40
2017-01-17T13:36:11.675Z,75
2017-01-17T13:37:11.297Z,40
2017-01-17T13:38:10.511Z,40
2017-01-17T13:39:11.313Z,45
2017-01-17T13:40:11.381Z,35
2017-01-17T13:41:10.937Z,35
2017-01-17T13:42:11.768Z,30
2017-01-17T13:43:10.963Z,30
2017-01-17T13:44:11.575Z,45
2017-01-17T13:45:12.187Z,30
2017-01-17T13:46:12.203Z,35
2017-01-17T13:47:11.801Z,50
2017-01-17T13:48:10.643Z,45
2017-01-17T13:49:11.478Z,35
2017-01-17T13:50:11.044Z,30
2017-01-17T13:51:11.060Z,40
2017-01-17T13:52:11.056Z,55
2017-01-17T13:53:11.473Z,40
2017-01-17T13:54:10.696Z,45
2017-01-17T13:55:11.500Z,30
2017-01-17T13:56:11.101Z,25
2017-01-17T13:57:11.544Z,20
2017-01-17T13:58:11.546Z,20
2017-01-17T13:59:11.942Z,25
2017-01-17T14:00:11.148Z,25
2017-01-17T14:01:11.582Z,25
2017-01-17T14:02:11.972Z,25
2017-01-17T14:03:12.184Z,25
2017-01-17T14:04:10.805Z,20
2017-01-17T14:05:11.604Z,40
2017-01-17T14:06:11.704Z,25
2017-01-17T14:07:11.636Z,30
2017-01-17T14:08:12.107Z,20
2017-01-17T14:09:10.907Z,35
2017-01-17T14:10:11.757Z,40
2017-01-17T14:11:11.430Z,40
2017-01-17T14:12:11.681Z,35
2017-01-17T14:13:12.104Z,40
2017-01-17T14:14:12.105Z,40
2017-01-17T14:15:11.735Z,35
2017-01-17T14:16:11.785Z,20
2017-01-17T14:17:11.340Z,20
2017-01-17T14:18:12.158Z,25
2017-01-17T14:19:11.371Z,25
2017-01-17T14:20:11.376Z,25
2017-01-17T14:21:11.494Z,25
2017-01-17T14:22:10.995Z,40
2017-01-17T14:23:12.619Z,20
2017-01-17T14:24:12.647Z,20
2017-01-17T14:25:12.358Z,25
2017-01-17T14:26:11.851Z,15
2017-01-17T14:27:12.736Z,15
2017-01-17T14:28:12.660Z,20
2017-01-17T14:29:11.658Z,15
2017-01-17T14:30:11.951Z,15
2017-01-17T14:31:11.505Z,10
2017-01-17T14:32:12.320Z,10